Time;durP1;ratioP1;P1;durP2;ratioP2;P2;SDS_P1;SDS_P2;PMS_P1;PMS_P2;Temp;Humidity;BMP_temperature;BMP_pressure;BME280_temperature;BME280_humidity;BME280_pressure;Samples;Min_cycle;Max_cycle;Signal;HPM_P1;HPM_P2
2023/10/26 00:01:39;;;;;;;;;;;20.00;56.30;;;;;;1539240;75;1140;-62
2023/10/26 00:03:41;;;;;;;;;;;20.00;56.30;;;;;;1540493;76;688;-62
2023/10/26 00:05:43;;;;;;;;;;;20.00;56.30;;;;;;1541605;75;678;-61
2023/10/26 00:07:45;;;;;;;;;;;19.90;56.20;;;;;;1538088;76;674;-61
2023/10/26 00:09:47;;;;;;;;;;;19.90;56.20;;;;;;1539875;75;1571;-61
2023/10/26 00:11:50;;;;;;;;;;;20.00;56.20;;;;;;1540432;75;1935;-60
2023/10/26 00:13:51;;;;;;;;;;;20.00;56.20;;;;;;1539362;76;680;-62
2023/10/26 00:15:53;;;;;;;;;;;20.00;56.20;;;;;;1541188;75;954;-61
2023/10/26 00:17:55;;;;;;;;;;;19.90;56.20;;;;;;1541901;75;674;-60
2023/10/26 00:19:57;;;;;;;;;;;20.00;56.20;;;;;;1541114;75;711;-60
2023/10/26 00:21:59;;;;;;;;;;;19.90;56.20;;;;;;1540612;75;1116;-61
2023/10/26 00:24:01;;;;;;;;;;;20.00;56.20;;;;;;1537479;76;1553;-61
2023/10/26 00:26:03;;;;;;;;;;;19.90;56.20;;;;;;1542907;76;694;-61
2023/10/26 00:28:04;;;;;;;;;;;20.00;56.10;;;;;;1538129;75;704;-62
2023/10/26 00:30:07;;;;;;;;;;;20.00;56.20;;;;;;1538878;75;885;-61
2023/10/26 00:32:09;;;;;;;;;;;19.90;56.10;;;;;;1541444;75;1929;-60
2023/10/26 00:34:11;;;;;;;;;;;19.90;56.10;;;;;;1542663;75;692;-61
2023/10/26 00:36:13;;;;;;;;;;;20.00;56.10;;;;;;1540510;75;699;-61
2023/10/26 00:38:15;;;;;;;;;;;20.00;56.10;;;;;;1540630;75;1271;-61
2023/10/26 00:40:17;;;;;;;;;;;19.90;56.10;;;;;;1540504;76;945;-61
2023/10/26 00:42:19;;;;;;;;;;;19.90;56.10;;;;;;1540417;75;1137;-60
2023/10/26 00:44:21;;;;;;;;;;;19.90;56.10;;;;;;1540343;75;684;-61
2023/10/26 00:46:22;;;;;;;;;;;20.00;56.10;;;;;;1540592;75;708;-60
2023/10/26 00:48:24;;;;;;;;;;;20.00;56.10;;;;;;1542079;76;802;-62
2023/10/26 00:50:26;;;;;;;;;;;20.00;56.10;;;;;;1540423;75;829;-61
2023/10/26 00:52:28;;;;;;;;;;;20.00;56.10;;;;;;1540006;75;1948;-62
2023/10/26 00:54:30;;;;;;;;;;;20.00;56.10;;;;;;1536333;75;695;-62
2023/10/26 00:56:33;;;;;;;;;;;19.90;56.10;;;;;;1540428;75;674;-61
2023/10/26 00:58:34;;;;;;;;;;;19.90;56.00;;;;;;1539672;75;691;-61
2023/10/26 01:00:37;;;;;;;;;;;20.00;56.00;;;;;;1539567;75;768;-64
2023/10/26 01:02:39;;;;;;;;;;;19.90;56.00;;;;;;1541115;75;1109;-61
2023/10/26 01:04:41;;;;;;;;;;;19.90;56.00;;;;;;1540567;76;1539;-60
2023/10/26 01:06:43;;;;;;;;;;;20.00;56.10;;;;;;1538356;75;942;-61
2023/10/26 01:08:45;;;;;;;;;;;19.90;56.00;;;;;;1541593;75;752;-60
2023/10/26 01:10:47;;;;;;;;;;;19.90;56.00;;;;;;1540929;75;765;-60
2023/10/26 01:12:48;;;;;;;;;;;20.00;56.00;;;;;;1541466;75;1949;-62
2023/10/26 01:14:50;;;;;;;;;;;20.00;56.00;;;;;;1539114;76;740;-62
2023/10/26 01:16:52;;;;;;;;;;;19.90;56.00;;;;;;1540500;75;781;-62
2023/10/26 01:18:56;;;;;;;;;;;20.00;56.00;;;;;;1539453;75;1517;-61
2023/10/26 01:20:58;;;;;;;;;;;20.00;56.00;;;;;;1544208;75;1247;-61
2023/10/26 01:23:00;;;;;;;;;;;20.00;56.00;;;;;;1540234;76;710;-62
2023/10/26 01:25:02;;;;;;;;;;;19.90;56.00;;;;;;1537855;76;698;-60
2023/10/26 01:27:04;;;;;;;;;;;20.00;56.00;;;;;;1540577;75;726;-61
2023/10/26 01:29:06;;;;;;;;;;;19.90;55.90;;;;;;1539579;76;699;-61
2023/10/26 01:31:08;;;;;;;;;;;19.90;56.00;;;;;;1538472;75;1108;-61
2023/10/26 01:33:10;;;;;;;;;;;19.90;56.00;;;;;;1540834;76;1951;-62
2023/10/26 01:35:12;;;;;;;;;;;19.90;56.00;;;;;;1540170;75;668;-62
2023/10/26 01:37:14;;;;;;;;;;;20.00;56.00;;;;;;1542028;76;761;-62
2023/10/26 01:39:16;;;;;;;;;;;19.90;56.00;;;;;;1536763;75;696;-62
2023/10/26 01:41:18;;;;;;;;;;;20.00;55.90;;;;;;1543455;75;1176;-59
2023/10/26 01:43:20;;;;;;;;;;;19.90;55.90;;;;;;1540790;75;668;-62
2023/10/26 01:45:22;;;;;;;;;;;20.00;56.00;;;;;;1540897;76;704;-61
2023/10/26 01:47:24;;;;;;;;;;;19.90;56.00;;;;;;1542555;76;1609;-60
2023/10/26 01:49:26;;;;;;;;;;;19.90;55.90;;;;;;1540348;75;708;-61
2023/10/26 01:51:28;;;;;;;;;;;20.00;56.00;;;;;;1540367;75;1189;-59
2023/10/26 01:53:29;;;;;;;;;;;19.90;56.00;;;;;;1538234;76;1944;-61
2023/10/26 01:55:31;;;;;;;;;;;20.00;55.90;;;;;;1539620;75;1093;-62
2023/10/26 01:57:33;;;;;;;;;;;20.00;55.90;;;;;;1540474;76;783;-61
2023/10/26 01:59:35;;;;;;;;;;;19.90;55.90;;;;;;1540450;75;697;-61
2023/10/26 02:01:37;;;;;;;;;;;19.90;55.90;;;;;;1540190;75;1587;-61
2023/10/26 02:03:39;;;;;;;;;;;19.90;55.90;;;;;;1537864;76;638;-61
2023/10/26 02:05:41;;;;;;;;;;;19.90;55.90;;;;;;1541721;75;693;-60
2023/10/26 02:07:43;;;;;;;;;;;19.90;55.90;;;;;;1542687;75;708;-61
2023/10/26 02:09:45;;;;;;;;;;;20.00;55.80;;;;;;1541158;75;722;-60
2023/10/26 02:11:47;;;;;;;;;;;19.90;55.90;;;;;;1539873;75;1965;-62
2023/10/26 02:13:49;;;;;;;;;;;19.90;55.80;;;;;;1536725;75;673;-62
2023/10/26 02:15:50;;;;;;;;;;;19.90;55.80;;;;;;1541916;75;1360;-62
2023/10/26 02:17:52;;;;;;;;;;;19.90;55.90;;;;;;1542030;75;725;-62
2023/10/26 02:19:54;;;;;;;;;;;19.90;55.90;;;;;;1537196;76;851;-61
2023/10/26 02:21:56;;;;;;;;;;;20.20;55.90;;;;;;1541650;75;1134;-61
2023/10/26 02:23:58;;;;;;;;;;;19.90;55.80;;;;;;1539817;75;688;-62
2023/10/26 02:26:01;;;;;;;;;;;19.90;55.90;;;;;;1538786;75;684;-62
2023/10/26 02:28:03;;;;;;;;;;;19.90;55.90;;;;;;1540178;75;714;-62
2023/10/26 02:30:05;;;;;;;;;;;20.10;56.00;;;;;;1535735;76;1561;-61
2023/10/26 02:32:07;;;;;;;;;;;19.90;55.90;;;;;;1543403;76;1937;-61
2023/10/26 02:34:09;;;;;;;;;;;19.90;55.90;;;;;;1539976;75;1042;-60
2023/10/26 02:36:11;;;;;;;;;;;19.90;55.90;;;;;;1540612;75;683;-61
2023/10/26 02:38:13;;;;;;;;;;;19.90;56.00;;;;;;1538969;76;754;-62
2023/10/26 02:40:15;;;;;;;;;;;19.90;55.90;;;;;;1540074;75;794;-62
2023/10/26 02:42:17;;;;;;;;;;;19.90;55.90;;;;;;1540350;75;1178;-62
2023/10/26 02:44:18;;;;;;;;;;;19.90;56.00;;;;;;1539634;75;1558;-62
2023/10/26 02:46:20;;;;;;;;;;;19.90;56.00;;;;;;1539962;75;688;-62
2023/10/26 02:48:22;;;;;;;;;;;19.90;56.00;;;;;;1540836;75;867;-62
2023/10/26 02:50:24;;;;;;;;;;;19.90;56.00;;;;;;1540442;75;683;-61
2023/10/26 02:52:26;;;;;;;;;;;19.90;55.90;;;;;;1540233;75;1941;-61
2023/10/26 02:54:28;;;;;;;;;;;19.90;56.00;;;;;;1535049;76;797;-62
2023/10/26 02:56:30;;;;;;;;;;;19.90;56.00;;;;;;1540496;76;720;-61
2023/10/26 02:58:32;;;;;;;;;;;19.90;56.00;;;;;;1538831;75;1597;-61
2023/10/26 03:00:34;;;;;;;;;;;20.00;56.00;;;;;;1543385;76;764;-61
2023/10/26 03:02:35;;;;;;;;;;;20.00;56.00;;;;;;1536090;75;1112;-62
2023/10/26 03:04:42;;;;;;;;;;;19.90;56.00;;;;;;1540218;76;720;-62
2023/10/26 03:06:43;;;;;;;;;;;19.90;56.00;;;;;;1531806;76;1699;-62
2023/10/26 03:08:45;;;;;;;;;;;19.90;56.00;;;;;;1534294;75;692;-61
2023/10/26 03:10:47;;;;;;;;;;;19.90;56.00;;;;;;1541164;75;757;-60
2023/10/26 03:12:49;;;;;;;;;;;19.90;56.00;;;;;;1540243;75;1940;-61
2023/10/26 03:14:52;;;;;;;;;;;19.90;56.00;;;;;;1541855;76;664;-60
2023/10/26 03:16:54;;;;;;;;;;;20.00;56.00;;;;;;1542612;75;675;-61
2023/10/26 03:18:56;;;;;;;;;;;20.00;56.00;;;;;;1539621;75;678;-59
2023/10/26 03:20:58;;;;;;;;;;;19.90;56.00;;;;;;1541503;75;1131;-61
2023/10/26 03:23:00;;;;;;;;;;;20.00;56.00;;;;;;1540848;75;739;-60
2023/10/26 03:25:02;;;;;;;;;;;19.90;56.00;;;;;;1538984;75;695;-60
2023/10/26 03:27:04;;;;;;;;;;;20.00;56.00;;;;;;1540132;75;1572;-61
2023/10/26 03:29:07;;;;;;;;;;;19.90;56.00;;;;;;1539793;76;674;-62
2023/10/26 03:31:12;;;;;;;;;;;19.90;56.00;;;;;;1536771;75;1152;-61
2023/10/26 03:33:13;;;;;;;;;;;20.00;56.00;;;;;;1537738;76;1918;-62
2023/10/26 03:35:15;;;;;;;;;;;19.90;56.00;;;;;;1542632;75;742;-61
2023/10/26 03:37:17;;;;;;;;;;;19.90;56.00;;;;;;1542447;75;781;-62
2023/10/26 03:39:19;;;;;;;;;;;19.90;56.00;;;;;;1540069;75;1583;-61
2023/10/26 03:41:21;;;;;;;;;;;19.90;56.00;;;;;;1535291;75;1132;-61
2023/10/26 03:43:23;;;;;;;;;;;20.00;56.00;;;;;;1539329;75;687;-59
2023/10/26 03:45:27;;;;;;;;;;;20.00;56.00;;;;;;1542145;76;757;-61
2023/10/26 03:47:28;;;;;;;;;;;19.90;56.00;;;;;;1540638;75;776;-62
2023/10/26 03:49:30;;;;;;;;;;;19.90;56.00;;;;;;1540663;76;721;-61
2023/10/26 03:51:32;;;;;;;;;;;19.90;56.00;;;;;;1540717;75;1174;-61
2023/10/26 03:53:34;;;;;;;;;;;19.90;56.00;;;;;;1531216;76;1959;-61
2023/10/26 03:55:36;;;;;;;;;;;19.90;56.00;;;;;;1538612;76;786;-61
2023/10/26 03:57:38;;;;;;;;;;;20.00;56.00;;;;;;1540715;76;778;-61
2023/10/26 03:59:40;;;;;;;;;;;19.90;56.00;;;;;;1540747;75;776;-62
2023/10/26 04:01:42;;;;;;;;;;;19.90;56.00;;;;;;1540660;75;1140;-61
2023/10/26 04:03:44;;;;;;;;;;;20.00;55.90;;;;;;1536316;75;672;-61
2023/10/26 04:05:46;;;;;;;;;;;19.90;56.00;;;;;;1540696;75;680;-62
2023/10/26 04:07:48;;;;;;;;;;;20.00;55.90;;;;;;1543182;76;1542;-60
2023/10/26 04:09:49;;;;;;;;;;;20.00;55.90;;;;;;1541594;75;667;-60
2023/10/26 04:11:51;;;;;;;;;;;19.90;56.00;;;;;;1540346;75;1125;-62
2023/10/26 04:13:54;;;;;;;;;;;19.90;55.90;;;;;;1536802;76;1916;-62
2023/10/26 04:15:59;;;;;;;;;;;19.90;56.00;;;;;;1542182;76;758;-60
2023/10/26 04:18:02;;;;;;;;;;;20.00;56.00;;;;;;1538892;76;745;-62
2023/10/26 04:20:05;;;;;;;;;;;19.90;56.00;;;;;;1540966;75;754;-61
2023/10/26 04:22:07;;;;;;;;;;;19.90;56.00;;;;;;1537332;75;1599;-60
2023/10/26 04:24:08;;;;;;;;;;;19.90;55.90;;;;;;1536934;75;804;-60
2023/10/26 04:26:12;;;;;;;;;;;19.90;56.00;;;;;;1540305;76;801;-62
2023/10/26 04:28:14;;;;;;;;;;;20.00;55.90;;;;;;1540336;76;703;-62
2023/10/26 04:30:16;;;;;;;;;;;19.90;56.00;;;;;;1537006;75;712;-61
2023/10/26 04:32:18;;;;;;;;;;;19.90;56.00;;;;;;1540468;75;1145;-61
2023/10/26 04:34:20;;;;;;;;;;;20.00;55.90;;;;;;1539528;75;1922;-62
2023/10/26 04:36:22;;;;;;;;;;;19.90;55.90;;;;;;1539683;75;1445;-62
2023/10/26 04:38:24;;;;;;;;;;;19.90;55.90;;;;;;1539841;75;707;-61
2023/10/26 04:40:26;;;;;;;;;;;19.90;56.00;;;;;;1536645;76;795;-61
2023/10/26 04:42:28;;;;;;;;;;;19.90;56.00;;;;;;1542557;75;1140;-62
2023/10/26 04:44:30;;;;;;;;;;;19.90;56.00;;;;;;1539619;75;675;-62
2023/10/26 04:46:32;;;;;;;;;;;19.90;56.00;;;;;;1543341;75;685;-62
2023/10/26 04:48:34;;;;;;;;;;;19.90;55.90;;;;;;1540181;75;676;-62
2023/10/26 04:50:36;;;;;;;;;;;19.90;55.90;;;;;;1544500;75;1473;-61
2023/10/26 04:52:38;;;;;;;;;;;19.80;55.90;;;;;;1536062;75;1163;-61
2023/10/26 04:54:40;;;;;;;;;;;20.00;56.00;;;;;;1537970;75;1929;-61
2023/10/26 04:56:42;;;;;;;;;;;19.90;55.90;;;;;;1540307;75;660;-62
2023/10/26 04:58:44;;;;;;;;;;;19.90;55.90;;;;;;1539490;75;705;-61
2023/10/26 05:00:46;;;;;;;;;;;19.90;56.00;;;;;;1537239;75;713;-61
2023/10/26 05:02:47;;;;;;;;;;;20.00;55.90;;;;;;1539929;75;1109;-61
2023/10/26 05:04:49;;;;;;;;;;;19.90;55.90;;;;;;1539595;75;1545;-60
2023/10/26 05:06:51;;;;;;;;;;;19.90;55.90;;;;;;1534447;76;617;-61
2023/10/26 05:08:53;;;;;;;;;;;20.00;56.00;;;;;;1542083;75;684;-61
2023/10/26 05:10:55;;;;;;;;;;;19.90;55.90;;;;;;1539384;75;1089;-61
2023/10/26 05:12:57;;;;;;;;;;;19.90;56.00;;;;;;1542392;75;1930;-62
2023/10/26 05:14:59;;;;;;;;;;;19.90;56.00;;;;;;1538103;75;738;-62
2023/10/26 05:17:01;;;;;;;;;;;19.90;56.00;;;;;;1536720;76;786;-61
2023/10/26 05:19:03;;;;;;;;;;;20.00;55.90;;;;;;1538835;76;1600;-60
2023/10/26 05:21:05;;;;;;;;;;;19.90;55.90;;;;;;1539837;75;1152;-61
2023/10/26 05:23:08;;;;;;;;;;;19.90;56.00;;;;;;1536574;75;678;-61
2023/10/26 05:25:11;;;;;;;;;;;19.90;56.00;;;;;;1539273;76;746;-60
2023/10/26 05:27:13;;;;;;;;;;;19.90;55.90;;;;;;1539890;76;740;-62
2023/10/26 05:29:15;;;;;;;;;;;20.00;55.90;;;;;;1538888;76;690;-62
2023/10/26 05:31:17;;;;;;;;;;;19.90;55.90;;;;;;1536931;76;1126;-62
2023/10/26 05:33:18;;;;;;;;;;;19.90;55.90;;;;;;1539576;75;1937;-62
2023/10/26 05:35:20;;;;;;;;;;;19.90;56.00;;;;;;1540934;75;780;-61
2023/10/26 05:37:23;;;;;;;;;;;19.90;55.90;;;;;;1542537;75;754;-61
2023/10/26 05:39:25;;;;;;;;;;;19.90;55.90;;;;;;1540461;75;704;-61
2023/10/26 05:41:27;;;;;;;;;;;19.90;55.90;;;;;;1535967;75;1151;-61
2023/10/26 05:43:28;;;;;;;;;;;19.90;55.90;;;;;;1541148;75;742;-61
2023/10/26 05:45:37;;;;;;;;;;;19.90;55.90;;;;;;1540320;75;928;-61
2023/10/26 05:47:35;;;;;;;;;;;19.90;55.90;;;;;;1541024;75;1580;-62
2023/10/26 05:49:37;;;;;;;;;;;19.90;55.90;;;;;;1544665;76;755;-61
2023/10/26 05:51:39;;;;;;;;;;;19.90;55.90;;;;;;1540632;75;1157;-62
2023/10/26 05:53:41;;;;;;;;;;;19.90;55.80;;;;;;1536775;76;1930;-61
2023/10/26 05:55:43;;;;;;;;;;;19.90;55.90;;;;;;1534785;75;670;-61
2023/10/26 05:57:45;;;;;;;;;;;20.20;56.00;;;;;;1540317;75;754;-62
2023/10/26 05:59:47;;;;;;;;;;;20.00;55.90;;;;;;1540572;76;699;-62
2023/10/26 06:01:49;;;;;;;;;;;20.00;55.80;;;;;;1537041;76;1518;-59
2023/10/26 06:03:51;;;;;;;;;;;19.90;55.90;;;;;;1540468;76;778;-61
2023/10/26 06:05:54;;;;;;;;;;;19.90;55.90;;;;;;1539983;75;744;-61
2023/10/26 06:07:56;;;;;;;;;;;19.90;55.90;;;;;;1541674;76;1772;-61
2023/10/26 06:09:58;;;;;;;;;;;19.90;55.90;;;;;;1538434;76;709;-60
2023/10/26 06:12:00;;;;;;;;;;;19.90;55.90;;;;;;1539666;75;1156;-62
2023/10/26 06:14:02;;;;;;;;;;;19.90;55.90;;;;;;1539156;75;1921;-62
2023/10/26 06:16:04;;;;;;;;;;;19.90;55.90;;;;;;1539244;75;702;-62
2023/10/26 06:18:06;;;;;;;;;;;19.90;55.80;;;;;;1535432;76;715;-62
2023/10/26 06:20:09;;;;;;;;;;;19.90;55.80;;;;;;1539676;75;752;-62
2023/10/26 06:22:11;;;;;;;;;;;19.90;55.80;;;;;;1538811;75;1129;-61
2023/10/26 06:24:12;;;;;;;;;;;19.90;55.80;;;;;;1536393;76;760;-62
2023/10/26 06:26:14;;;;;;;;;;;19.90;55.80;;;;;;1539756;75;725;-61
2023/10/26 06:28:17;;;;;;;;;;;19.90;55.80;;;;;;1540122;75;1305;-62
2023/10/26 06:30:19;;;;;;;;;;;19.90;55.80;;;;;;1539271;75;764;-62
2023/10/26 06:32:21;;;;;;;;;;;20.00;55.80;;;;;;1539284;75;1110;-60
2023/10/26 06:34:22;;;;;;;;;;;19.90;55.80;;;;;;1539918;75;1922;-59
2023/10/26 06:36:24;;;;;;;;;;;20.00;55.80;;;;;;1540232;75;682;-59
2023/10/26 06:38:26;;;;;;;;;;;19.90;55.80;;;;;;1539965;75;666;-59
2023/10/26 06:40:28;;;;;;;;;;;19.90;55.70;;;;;;1539381;75;730;-60
2023/10/26 06:42:30;;;;;;;;;;;19.90;55.70;;;;;;1537538;75;1569;-61
2023/10/26 06:44:32;;;;;;;;;;;19.90;55.70;;;;;;1540593;76;865;-61
2023/10/26 06:46:34;;;;;;;;;;;19.90;55.70;;;;;;1540439;76;719;-61
2023/10/26 06:48:36;;;;;;;;;;;19.90;55.70;;;;;;1540268;76;699;-61
2023/10/26 06:50:38;;;;;;;;;;;19.90;55.70;;;;;;1541664;75;715;-61
2023/10/26 06:52:40;;;;;;;;;;;19.90;55.70;;;;;;1538268;75;1141;-61
2023/10/26 06:54:41;;;;;;;;;;;20.00;55.70;;;;;;1541864;76;1959;-60
2023/10/26 06:56:44;;;;;;;;;;;20.00;55.70;;;;;;1535080;76;1540;-61
2023/10/26 06:58:47;;;;;;;;;;;19.90;55.70;;;;;;1544960;76;688;-60
2023/10/26 07:00:49;;;;;;;;;;;19.90;55.70;;;;;;1539414;75;697;-60
2023/10/26 07:02:50;;;;;;;;;;;19.90;55.70;;;;;;1540239;74;1174;-61
2023/10/26 07:04:52;;;;;;;;;;;19.90;55.70;;;;;;1538953;76;675;-59
2023/10/26 07:06:54;;;;;;;;;;;19.90;55.70;;;;;;1538375;76;676;-59
2023/10/26 07:08:56;;;;;;;;;;;19.90;55.70;;;;;;1544231;76;686;-58
2023/10/26 07:10:59;;;;;;;;;;;19.90;55.60;;;;;;1540293;75;1557;-58
2023/10/26 07:13:00;;;;;;;;;;;19.90;55.70;;;;;;1540380;76;682;-58
2023/10/26 07:15:03;;;;;;;;;;;19.90;55.70;;;;;;1539352;75;1939;-61
2023/10/26 07:17:04;;;;;;;;;;;19.90;55.70;;;;;;1540634;76;699;-61
2023/10/26 07:19:06;;;;;;;;;;;19.90;55.70;;;;;;1539283;76;679;-61
2023/10/26 07:21:08;;;;;;;;;;;19.90;55.70;;;;;;1540180;75;1086;-60
2023/10/26 07:23:10;;;;;;;;;;;19.90;55.60;;;;;;1537019;75;739;-60
2023/10/26 07:25:12;;;;;;;;;;;19.90;55.70;;;;;;1539899;76;1576;-60
2023/10/26 07:27:14;;;;;;;;;;;20.00;55.60;;;;;;1546106;76;724;-59
2023/10/26 07:29:16;;;;;;;;;;;19.90;55.70;;;;;;1537839;75;738;-61
2023/10/26 07:31:21;;;;;;;;;;;19.90;55.70;;;;;;1539103;75;1176;-60
2023/10/26 07:33:23;;;;;;;;;;;19.90;55.60;;;;;;1540105;76;768;-59
2023/10/26 07:35:25;;;;;;;;;;;19.90;55.70;;;;;;1540684;75;1916;-59
2023/10/26 07:37:27;;;;;;;;;;;19.90;55.60;;;;;;1540356;75;641;-60
2023/10/26 07:39:29;;;;;;;;;;;19.90;55.70;;;;;;1536247;75;1537;-58
2023/10/26 07:41:31;;;;;;;;;;;19.90;55.70;;;;;;1539807;75;1150;-61
2023/10/26 07:43:33;;;;;;;;;;;19.90;55.60;;;;;;1539837;75;793;-60
2023/10/26 07:45:35;;;;;;;;;;;19.90;55.70;;;;;;1540792;75;657;-61
2023/10/26 07:47:37;;;;;;;;;;;19.90;55.70;;;;;;1544739;75;680;-60
2023/10/26 07:49:39;;;;;;;;;;;19.90;55.60;;;;;;1539685;75;733;-60
2023/10/26 07:51:40;;;;;;;;;;;19.90;55.70;;;;;;1540635;75;1164;-60
2023/10/26 07:53:42;;;;;;;;;;;19.90;55.60;;;;;;1540832;76;1337;-60
2023/10/26 07:55:44;;;;;;;;;;;19.90;55.60;;;;;;1533758;75;1945;-61
2023/10/26 07:57:46;;;;;;;;;;;19.90;55.70;;;;;;1540136;76;791;-60
2023/10/26 07:59:48;;;;;;;;;;;19.90;55.70;;;;;;1542332;75;703;-60
2023/10/26 08:01:50;;;;;;;;;;;19.90;55.70;;;;;;1538953;75;1148;-61
2023/10/26 08:03:52;;;;;;;;;;;19.90;55.60;;;;;;1536264;76;695;-60
2023/10/26 08:05:57;;;;;;;;;;;19.90;55.60;;;;;;1540165;75;641;-59
2023/10/26 08:07:59;;;;;;;;;;;19.90;55.70;;;;;;1538909;75;1576;-59
2023/10/26 08:10:01;;;;;;;;;;;19.90;55.70;;;;;;1539980;75;698;-60
2023/10/26 08:12:03;;;;;;;;;;;19.90;55.70;;;;;;1540133;75;1120;-60
2023/10/26 08:14:05;;;;;;;;;;;19.90;55.70;;;;;;1540335;75;1912;-61
2023/10/26 08:16:07;;;;;;;;;;;19.90;55.70;;;;;;1540436;75;703;-61
2023/10/26 08:18:09;;;;;;;;;;;19.90;55.70;;;;;;1540674;75;722;-60
2023/10/26 08:20:11;;;;;;;;;;;20.10;55.80;;;;;;1540565;75;672;-61
2023/10/26 08:22:13;;;;;;;;;;;19.90;55.70;;;;;;1540005;75;1545;-60
2023/10/26 08:24:16;;;;;;;;;;;19.90;55.70;;;;;;1542101;76;749;-60
2023/10/26 08:26:18;;;;;;;;;;;19.90;55.60;;;;;;1540929;76;781;-61
2023/10/26 08:28:20;;;;;;;;;;;19.90;55.70;;;;;;1541552;75;691;-61
2023/10/26 08:30:21;;;;;;;;;;;19.90;55.70;;;;;;1539213;75;703;-60
2023/10/26 08:32:23;;;;;;;;;;;19.90;55.70;;;;;;1539676;75;1121;-60
2023/10/26 08:34:27;;;;;;;;;;;19.90;55.60;;;;;;1540503;75;1933;-59
2023/10/26 08:36:28;;;;;;;;;;;19.90;55.60;;;;;;1539876;75;1444;-60
2023/10/26 08:38:30;;;;;;;;;;;20.10;55.70;;;;;;1540124;76;689;-61
2023/10/26 08:40:33;;;;;;;;;;;19.90;55.70;;;;;;1540141;76;673;-60
2023/10/26 08:42:36;;;;;;;;;;;19.90;55.60;;;;;;1538996;75;1149;-60
2023/10/26 08:44:38;;;;;;;;;;;19.90;55.70;;;;;;1538969;76;2019;-60
2023/10/26 08:46:40;;;;;;;;;;;19.90;55.60;;;;;;1539685;75;784;-60
2023/10/26 08:48:42;;;;;;;;;;;19.90;55.70;;;;;;1539553;75;847;-60
2023/10/26 08:50:44;;;;;;;;;;;19.90;55.60;;;;;;1534254;75;791;-61
2023/10/26 08:52:46;;;;;;;;;;;19.90;55.70;;;;;;1540199;75;1133;-61
2023/10/26 08:54:48;;;;;;;;;;;19.90;55.60;;;;;;1539898;75;1925;-59
2023/10/26 08:56:50;;;;;;;;;;;19.90;55.70;;;;;;1539838;76;671;-60
2023/10/26 08:58:57;;;;;;;;;;;19.90;55.70;;;;;;1540268;75;688;-60
2023/10/26 09:01:01;;;;;;;;;;;19.90;55.60;;;;;;1538485;75;1148;-60
2023/10/26 09:03:02;;;;;;;;;;;19.90;55.70;;;;;;1533957;75;1693;-61
2023/10/26 09:05:04;;;;;;;;;;;19.90;55.70;;;;;;1540664;75;779;-60
2023/10/26 09:07:06;;;;;;;;;;;19.90;55.70;;;;;;1539861;76;708;-61
2023/10/26 09:09:08;;;;;;;;;;;19.90;55.70;;;;;;1537704;75;731;-60
2023/10/26 09:11:25;;;;;;;;;;;19.90;55.70;;;;;;1540069;75;1193;-59
2023/10/26 09:13:28;;;;;;;;;;;19.90;55.70;;;;;;1535203;75;866;-60
2023/10/26 09:15:30;;;;;;;;;;;19.90;55.70;;;;;;1539746;75;1930;-60
2023/10/26 09:17:32;;;;;;;;;;;19.90;55.60;;;;;;1536522;75;1577;-60
2023/10/26 09:19:41;;;;;;;;;;;19.90;55.70;;;;;;1540321;75;727;-60
2023/10/26 09:21:50;;;;;;;;;;;19.90;55.70;;;;;;1539505;75;1154;-61
2023/10/26 09:23:52;;;;;;;;;;;19.90;55.70;;;;;;1536458;76;695;-59
2023/10/26 09:25:57;;;;;;;;;;;19.90;55.70;;;;;;1541613;75;799;-60
2023/10/26 09:28:05;;;;;;;;;;;20.10;55.80;;;;;;1539257;76;744;-60
2023/10/26 09:30:08;;;;;;;;;;;19.90;55.70;;;;;;1539553;75;710;-61
2023/10/26 09:32:10;;;;;;;;;;;19.90;55.70;;;;;;1517940;76;1627;-60
2023/10/26 09:34:12;;;;;;;;;;;19.90;55.70;;;;;;1540668;76;750;-61
2023/10/26 09:36:14;;;;;;;;;;;19.90;55.70;;;;;;1542184;76;1937;-59
2023/10/26 09:38:21;;;;;;;;;;;19.90;55.70;;;;;;1542055;75;713;-60
2023/10/26 09:40:23;;;;;;;;;;;19.90;55.70;;;;;;1538756;75;643;-59
2023/10/26 09:42:25;;;;;;;;;;;19.90;55.70;;;;;;1540238;75;1144;-61
2023/10/26 09:44:28;;;;;;;;;;;19.90;55.70;;;;;;1540036;76;763;-60
2023/10/26 09:46:29;;;;;;;;;;;19.90;55.70;;;;;;1539151;75;1367;-61
2023/10/26 09:48:31;;;;;;;;;;;19.90;55.70;;;;;;1540450;75;762;-60
2023/10/26 09:50:39;;;;;;;;;;;19.90;55.70;;;;;;1540025;75;715;-61
2023/10/26 09:52:38;;;;;;;;;;;19.90;55.70;;;;;;1528974;75;1468;-59
2023/10/26 09:54:40;;;;;;;;;;;19.90;55.50;;;;;;1538799;75;1938;-63
2023/10/26 09:56:43;;;;;;;;;;;19.90;55.90;;;;;;1539658;75;934;-64
2023/10/26 09:58:45;;;;;;;;;;;20.00;54.70;;;;;;1534988;75;734;-65
2023/10/26 10:00:47;;;;;;;;;;;19.90;55.00;;;;;;1539483;75;1664;-65
2023/10/26 10:02:50;;;;;;;;;;;19.80;55.50;;;;;;1538294;75;1161;-66
2023/10/26 10:04:52;;;;;;;;;;;19.80;55.80;;;;;;1540071;75;1669;-66
2023/10/26 10:06:58;;;;;;;;;;;19.80;55.90;;;;;;1537358;76;676;-66
2023/10/26 10:09:01;;;;;;;;;;;19.90;56.00;;;;;;1538643;75;1546;-66
2023/10/26 10:11:16;;;;;;;;;;;19.80;55.90;;;;;;1539637;75;1138;-66
2023/10/26 10:13:22;;;;;;;;;;;19.80;55.80;;;;;;1537533;75;1805;-68
2023/10/26 10:15:43;;;;;;;;;;;20.10;56.10;;;;;;1537727;76;1925;-65
2023/10/26 10:17:45;;;;;;;;;;;19.90;56.00;;;;;;1538150;75;1818;-64
2023/10/26 10:19:47;;;;;;;;;;;19.90;56.00;;;;;;1537484;76;708;-67
2023/10/26 10:21:49;;;;;;;;;;;19.90;56.00;;;;;;1539890;75;1144;-65
2023/10/26 10:23:51;;;;;;;;;;;19.90;56.00;;;;;;1538173;76;641;-65
2023/10/26 10:25:54;;;;;;;;;;;19.90;56.00;;;;;;1541632;75;764;-66
2023/10/26 10:27:57;;;;;;;;;;;19.90;56.00;;;;;;1539665;75;1637;-65
2023/10/26 10:30:00;;;;;;;;;;;19.90;56.00;;;;;;1539541;75;696;-65
2023/10/26 10:32:02;;;;;;;;;;;19.90;56.00;;;;;;1525247;76;1172;-65
2023/10/26 10:34:05;;;;;;;;;;;19.90;56.10;;;;;;1539940;76;713;-65
2023/10/26 10:36:11;;;;;;;;;;;19.90;56.00;;;;;;1541958;76;1920;-67
2023/10/26 10:38:19;;;;;;;;;;;19.90;56.00;;;;;;1538621;76;1610;-67
2023/10/26 10:40:21;;;;;;;;;;;19.90;56.10;;;;;;1532896;76;734;-62
2023/10/26 10:42:22;;;;;;;;;;;19.90;56.00;;;;;;1542950;75;1635;-60
2023/10/26 10:44:24;;;;;;;;;;;20.00;56.00;;;;;;1538869;76;709;-62
2023/10/26 10:46:27;;;;;;;;;;;19.90;56.10;;;;;;1540413;76;804;-62
2023/10/26 10:48:29;;;;;;;;;;;19.90;56.10;;;;;;1540861;75;717;-62
2023/10/26 10:50:30;;;;;;;;;;;20.00;56.00;;;;;;1539287;76;691;-62
2023/10/26 10:52:32;;;;;;;;;;;20.00;56.00;;;;;;1539081;75;1172;-62
2023/10/26 10:54:34;;;;;;;;;;;19.90;56.10;;;;;;1539739;75;686;-63
2023/10/26 10:56:43;;;;;;;;;;;19.90;56.10;;;;;;1539849;75;1948;-62
2023/10/26 10:58:45;;;;;;;;;;;19.90;56.00;;;;;;1540097;76;801;-63
2023/10/26 11:00:48;;;;;;;;;;;19.90;56.10;;;;;;1536963;76;844;-62
2023/10/26 11:02:52;;;;;;;;;;;20.00;56.10;;;;;;1540392;75;1137;-61
2023/10/26 11:04:55;;;;;;;;;;;20.00;56.10;;;;;;1540047;76;761;-61
2023/10/26 11:06:57;;;;;;;;;;;20.00;56.10;;;;;;1537896;76;706;-62
2023/10/26 11:08:59;;;;;;;;;;;19.90;56.20;;;;;;1541800;75;685;-62
2023/10/26 11:11:01;;;;;;;;;;;19.90;56.10;;;;;;1541344;75;1538;-61
2023/10/26 11:13:03;;;;;;;;;;;19.90;56.10;;;;;;1538642;75;681;-63
2023/10/26 11:15:07;;;;;;;;;;;20.00;56.20;;;;;;1537337;75;1917;-63
2023/10/26 11:17:09;;;;;;;;;;;20.00;56.10;;;;;;1541538;76;711;-62
2023/10/26 11:19:11;;;;;;;;;;;20.00;56.20;;;;;;1537756;75;743;-63
2023/10/26 11:21:16;;;;;;;;;;;20.00;56.20;;;;;;1542481;75;1122;-62
2023/10/26 11:23:20;;;;;;;;;;;19.90;56.20;;;;;;1538433;75;684;-64
2023/10/26 11:25:26;;;;;;;;;;;19.90;56.30;;;;;;1542750;76;1648;-62
2023/10/26 11:27:28;;;;;;;;;;;19.90;56.30;;;;;;1539352;76;1520;-61
2023/10/26 11:29:30;;;;;;;;;;;19.90;56.30;;;;;;1539342;75;743;-62
2023/10/26 11:31:39;;;;;;;;;;;20.00;56.30;;;;;;1540401;75;1093;-62
2023/10/26 11:33:40;;;;;;;;;;;19.90;56.20;;;;;;1539634;76;1629;-61
2023/10/26 11:35:44;;;;;;;;;;;20.00;56.40;;;;;;1540434;76;1928;-62
2023/10/26 11:37:51;;;;;;;;;;;19.90;56.50;;;;;;1537006;75;1553;-62
2023/10/26 11:39:54;;;;;;;;;;;19.90;56.80;;;;;;1540791;75;773;-63
2023/10/26 11:41:56;;;;;;;;;;;19.90;57.70;;;;;;1540263;75;1157;-61
2023/10/26 11:43:58;;;;;;;;;;;19.90;58.30;;;;;;1539067;76;675;-60
2023/10/26 11:46:02;;;;;;;;;;;19.90;58.60;;;;;;1540182;76;764;-61
2023/10/26 11:48:04;;;;;;;;;;;20.00;58.80;;;;;;1540622;76;975;-61
2023/10/26 11:50:06;;;;;;;;;;;19.90;59.10;;;;;;1539295;75;696;-63
2023/10/26 11:52:08;;;;;;;;;;;19.90;59.10;;;;;;1538631;75;1646;-61
2023/10/26 11:54:11;;;;;;;;;;;19.90;59.20;;;;;;1541288;76;757;-62
2023/10/26 11:56:13;;;;;;;;;;;19.90;59.30;;;;;;1535769;76;1920;-65
2023/10/26 11:58:15;;;;;;;;;;;20.00;59.90;;;;;;1537919;76;711;-64
2023/10/26 12:00:18;;;;;;;;;;;20.00;59.50;;;;;;1538993;75;834;-65
2023/10/26 12:02:24;;;;;;;;;;;20.00;59.50;;;;;;1539461;75;1136;-63
2023/10/26 12:04:23;;;;;;;;;;;20.00;59.40;;;;;;1541361;75;1517;-64
2023/10/26 12:06:25;;;;;;;;;;;20.00;59.40;;;;;;1536368;76;1419;-64
2023/10/26 12:08:27;;;;;;;;;;;20.00;59.30;;;;;;1539640;75;720;-65
2023/10/26 12:10:28;;;;;;;;;;;20.00;59.30;;;;;;1538155;75;683;-64